createdAt,value
2023-07-14T06:02:48.280Z,101305.22
2023-07-14T06:05:16.011Z,101295.97
2023-07-14T06:07:43.485Z,101296.41
2023-07-14T06:10:12.113Z,101296.94
2023-07-14T06:12:39.306Z,101298.63
2023-07-14T06:15:07.032Z,101293.69
2023-07-14T06:17:33.689Z,101297.34
2023-07-14T06:20:00.449Z,101297.75
2023-07-14T06:22:27.171Z,101289.47
2023-07-14T06:24:53.933Z,101283.66
2023-07-14T06:27:24.173Z,101290.66
2023-07-14T06:29:51.011Z,101281.50
2023-07-14T06:32:17.758Z,101280.56
2023-07-14T06:34:45.005Z,101280.88
2023-07-14T06:37:11.659Z,101272.00
2023-07-14T06:39:38.906Z,101282.53
2023-07-14T06:42:06.382Z,101288.97
2023-07-14T06:44:33.084Z,101284.16
2023-07-14T06:46:59.794Z,101285.84
2023-07-14T06:49:28.860Z,101282.84
2023-07-14T06:51:56.574Z,101289.34
2023-07-14T06:54:23.328Z,101278.94
2023-07-14T06:56:50.093Z,101286.84
2023-07-14T06:59:16.821Z,101291.72
2023-07-14T07:01:43.524Z,101291.81
2023-07-14T07:04:10.193Z,101287.94
2023-07-14T07:06:37.029Z,101282.94
2023-07-14T07:09:05.232Z,101281.44
2023-07-14T07:11:34.159Z,101286.91
2023-07-14T07:14:01.263Z,101290.91
2023-07-14T07:16:27.963Z,101288.66
2023-07-14T07:18:54.831Z,101287.66
2023-07-14T07:21:21.519Z,101279.75
2023-07-14T07:23:48.257Z,101285.09
2023-07-14T07:26:15.804Z,101278.06
2023-07-14T07:28:42.649Z,101275.91
2023-07-14T07:31:12.292Z,101274.91
2023-07-14T07:36:16.350Z,101266.78
2023-07-14T07:38:46.326Z,101269.56
2023-07-14T07:41:15.511Z,101268.53
2023-07-14T07:43:42.948Z,101263.91
2023-07-14T07:46:10.364Z,101260.75
2023-07-14T07:48:37.508Z,101268.03
2023-07-14T07:51:06.044Z,101269.53
2023-07-14T07:53:33.864Z,101267.41
2023-07-14T07:56:02.271Z,101256.75
2023-07-14T07:58:30.000Z,101259.03
2023-07-14T08:00:59.790Z,101271.09
2023-07-14T08:03:27.532Z,101266.53
2023-07-14T08:06:03.637Z,101261.06
2023-07-14T08:08:30.950Z,101258.84
2023-07-14T08:10:58.622Z,101257.78
2023-07-14T08:13:30.245Z,101248.88
2023-07-14T08:15:58.956Z,101259.59
2023-07-14T08:18:27.168Z,101251.00
2023-07-14T08:20:54.566Z,101245.47
2023-07-14T08:23:23.328Z,101251.22
2023-07-14T08:25:58.261Z,101255.16
2023-07-14T08:28:28.252Z,101255.66
2023-07-14T08:30:58.914Z,101253.75
2023-07-14T08:33:26.413Z,101248.66
2023-07-14T08:35:54.635Z,101244.22
2023-07-14T08:38:22.856Z,101254.06
2023-07-14T08:40:55.415Z,101254.44
2023-07-14T08:43:28.559Z,101248.22
2023-07-14T08:46:12.520Z,101254.16
2023-07-14T08:48:47.109Z,101244.06
2023-07-14T08:51:29.375Z,101247.56
2023-07-14T08:54:03.859Z,101256.06
2023-07-14T08:56:34.986Z,101255.66
2023-07-14T08:59:02.585Z,101249.78
2023-07-14T09:01:51.930Z,101245.13
2023-07-14T09:04:25.624Z,101251.44
2023-07-14T09:06:52.763Z,101248.41
2023-07-14T09:09:34.707Z,101252.88
2023-07-14T09:12:04.550Z,101240.56
2023-07-14T09:15:00.828Z,101233.94
2023-07-14T09:17:33.518Z,101242.16
2023-07-14T09:20:46.121Z,101241.06
2023-07-14T09:23:43.734Z,101242.25
2023-07-14T09:26:20.726Z,101236.88
2023-07-14T09:28:52.076Z,101236.91
2023-07-14T09:31:57.576Z,101235.97
2023-07-14T09:34:36.843Z,101224.50
2023-07-14T09:37:16.938Z,101229.38
2023-07-14T09:39:46.424Z,101238.41
2023-07-14T09:42:27.370Z,101235.88
2023-07-14T09:45:10.322Z,101230.25
2023-07-14T09:47:37.668Z,101235.53
2023-07-14T09:50:05.564Z,101230.25
2023-07-14T09:52:32.238Z,101226.56
2023-07-14T09:55:00.757Z,101224.81
2023-07-14T09:57:39.645Z,101233.31
2023-07-14T10:00:25.805Z,101224.13
2023-07-14T10:03:04.133Z,101220.00
2023-07-14T10:06:18.885Z,101217.44
2023-07-14T10:08:56.757Z,101218.31
2023-07-14T10:11:47.942Z,101212.38
2023-07-14T10:14:36.384Z,101211.13
2023-07-14T10:17:05.721Z,101203.69
2023-07-14T10:19:40.255Z,101205.91
2023-07-14T10:22:10.222Z,101205.34
2023-07-14T10:24:38.748Z,101205.66
2023-07-14T10:27:32.287Z,101203.19
2023-07-14T10:29:58.941Z,101201.50
2023-07-14T10:32:42.306Z,101198.31
2023-07-14T10:35:18.270Z,101202.75
2023-07-14T10:37:53.114Z,101198.88
2023-07-14T10:40:24.171Z,101195.31
2023-07-14T10:43:05.504Z,101187.75
2023-07-14T10:45:35.429Z,101185.03
2023-07-14T10:48:07.776Z,101185.97
2023-07-14T10:50:42.697Z,101185.03
2023-07-14T10:53:18.630Z,101182.88
2023-07-14T10:55:47.272Z,101180.16
2023-07-14T10:58:29.294Z,101180.38
2023-07-14T11:01:02.524Z,101180.41
2023-07-14T11:03:35.570Z,101179.41
2023-07-14T11:06:31.685Z,101178.28
2023-07-14T11:08:59.078Z,101176.94
2023-07-14T11:11:54.350Z,101177.69
2023-07-14T11:14:27.147Z,101180.47
2023-07-14T11:17:03.718Z,101174.09
2023-07-14T11:19:52.167Z,101174.69
2023-07-14T11:22:43.307Z,101175.97
2023-07-14T11:25:24.455Z,101179.09
2023-07-14T11:27:58.315Z,101174.13
2023-07-14T11:30:30.608Z,101174.28
2023-07-14T11:33:06.245Z,101171.28
2023-07-14T11:35:51.965Z,101171.28
2023-07-14T11:38:40.170Z,101166.84
2023-07-14T11:41:07.124Z,101167.25
2023-07-14T11:43:34.822Z,101166.00
2023-07-14T11:46:07.709Z,101166.66
2023-07-14T11:48:41.366Z,101163.94
2023-07-14T11:51:11.869Z,101154.31
2023-07-14T11:53:41.880Z,101152.03
2023-07-14T11:56:27.992Z,101151.53
2023-07-14T11:59:13.662Z,101146.13
2023-07-14T12:01:52.144Z,101148.94
2023-07-14T12:04:57.877Z,101137.50
2023-07-14T12:07:25.425Z,101135.53
2023-07-14T12:10:01.010Z,101131.72
2023-07-14T12:12:28.908Z,101126.94
2023-07-14T12:14:55.578Z,101127.69
2023-07-14T12:17:37.614Z,101112.38
2023-07-14T12:20:17.726Z,101116.09
2023-07-14T12:22:54.267Z,101120.19
2023-07-14T12:25:25.474Z,101113.38
2023-07-14T12:27:55.569Z,101112.06
2023-07-14T12:30:24.575Z,101103.97
2023-07-14T12:32:57.055Z,101103.81
2023-07-14T12:35:27.853Z,101095.81
2023-07-14T12:37:54.574Z,101093.09
2023-07-14T12:40:25.377Z,101089.00
2023-07-14T12:42:53.708Z,101085.44
2023-07-14T12:45:21.854Z,101086.56
2023-07-14T12:47:53.567Z,101082.72
2023-07-14T12:50:26.084Z,101080.09
2023-07-14T12:52:52.910Z,101075.06
2023-07-14T12:55:25.423Z,101072.31
2023-07-14T12:57:52.541Z,101077.38
2023-07-14T13:00:26.900Z,101075.06
2023-07-14T13:02:55.567Z,101068.69
2023-07-14T13:05:27.348Z,101064.06
2023-07-14T13:07:56.005Z,101064.81
2023-07-14T13:10:28.017Z,101056.09
2023-07-14T13:12:56.561Z,101059.41
2023-07-14T13:15:28.837Z,101053.78
2023-07-14T13:17:58.771Z,101051.25
2023-07-14T13:20:37.510Z,101060.69
2023-07-14T13:23:21.295Z,101052.44
2023-07-14T13:26:06.276Z,101052.34
2023-07-14T13:28:56.605Z,101054.34
2023-07-14T13:31:33.840Z,101045.84
2023-07-14T13:34:09.447Z,101044.66
2023-07-14T13:36:36.901Z,101049.06
2023-07-14T13:39:07.390Z,101047.91
2023-07-14T13:41:34.320Z,101049.88
2023-07-14T13:44:29.134Z,101047.44
2023-07-14T13:46:56.417Z,101043.81
2023-07-14T13:49:23.214Z,101046.81
2023-07-14T13:51:50.032Z,101032.34
2023-07-14T13:54:19.065Z,101026.28
2023-07-14T13:56:47.767Z,101020.94
2023-07-14T13:59:17.162Z,101020.66
2023-07-14T14:01:44.556Z,101012.97
2023-07-14T14:04:16.252Z,101015.41
2023-07-14T14:06:45.293Z,101012.44
2023-07-14T14:09:20.950Z,101004.94
2023-07-14T14:11:51.975Z,100997.72
2023-07-14T14:14:21.384Z,100995.91
2023-07-14T14:16:50.138Z,100991.13
2023-07-14T14:19:24.343Z,100981.97
2023-07-14T14:22:00.474Z,100974.22
2023-07-14T14:24:27.382Z,100970.78
2023-07-14T14:26:55.227Z,100976.03
2023-07-14T14:29:23.508Z,100966.88
2023-07-14T14:31:50.203Z,100975.75
2023-07-14T14:34:17.816Z,100970.81
2023-07-14T14:36:44.523Z,100969.34
2023-07-14T14:39:18.261Z,100961.38
2023-07-14T14:41:46.485Z,100954.28
2023-07-14T14:44:22.317Z,100960.31
2023-07-14T14:46:49.390Z,100954.22
2023-07-14T14:49:16.998Z,100954.81
2023-07-14T14:51:44.360Z,100948.38
2023-07-14T14:54:11.376Z,100945.16
2023-07-14T14:56:42.271Z,100946.72
2023-07-14T14:59:25.145Z,100939.94
2023-07-14T15:01:52.021Z,100941.25
2023-07-14T15:04:30.102Z,100934.91
2023-07-14T15:06:57.026Z,100937.16
2023-07-14T15:09:24.128Z,100937.50
2023-07-14T15:11:54.651Z,100932.94
2023-07-14T15:14:35.970Z,100932.19
2023-07-14T15:17:16.176Z,100929.78
2023-07-14T15:19:42.948Z,100921.50
2023-07-14T15:22:21.837Z,100925.84
2023-07-14T15:24:51.059Z,100923.94
2023-07-14T15:27:28.672Z,100916.63
2023-07-14T15:30:02.844Z,100916.31
2023-07-14T15:32:29.977Z,100916.75
2023-07-14T15:34:57.379Z,100907.56
2023-07-14T15:37:24.091Z,100903.59
2023-07-14T15:39:50.756Z,100903.31
2023-07-14T15:42:17.519Z,100898.25
2023-07-14T15:44:44.226Z,100893.72
2023-07-14T15:47:16.303Z,100884.94
2023-07-14T15:49:48.831Z,100885.66
2023-07-14T15:52:19.055Z,100877.56
2023-07-14T15:54:46.443Z,100883.16
2023-07-14T15:57:16.189Z,100877.53
2023-07-14T15:59:45.137Z,100875.81
2023-07-14T16:02:16.471Z,100866.22
2023-07-14T16:04:43.691Z,100864.72
2023-07-14T16:07:14.881Z,100862.97
2023-07-14T16:09:43.246Z,100858.19
2023-07-14T16:12:19.073Z,100852.78
2023-07-14T16:14:45.812Z,100845.75
2023-07-14T16:17:12.535Z,100843.25
2023-07-14T16:19:39.531Z,100846.16
2023-07-14T16:22:07.456Z,100850.06
2023-07-14T16:24:38.492Z,100849.69
2023-07-14T16:27:24.381Z,100850.88
2023-07-14T16:29:51.609Z,100843.13
2023-07-14T16:32:18.592Z,100834.97
2023-07-14T16:34:45.827Z,100840.84
2023-07-14T16:37:21.919Z,100835.41
2023-07-14T16:39:49.119Z,100833.75
2023-07-14T16:42:19.784Z,100827.72
2023-07-14T16:44:46.655Z,100827.91
2023-07-14T16:47:14.419Z,100832.13
2023-07-14T16:49:41.633Z,100830.19
2023-07-14T16:52:27.870Z,100821.84
2023-07-14T16:54:54.688Z,100824.94
2023-07-14T16:57:31.131Z,100822.22
2023-07-14T16:59:57.985Z,100813.41
2023-07-14T17:02:26.941Z,100812.56
2023-07-14T17:04:54.359Z,100809.53
2023-07-14T17:07:21.839Z,100805.41
2023-07-14T17:09:50.700Z,100799.47
2023-07-14T17:12:17.991Z,100794.91
2023-07-14T17:14:44.684Z,100784.69
2023-07-14T17:17:15.181Z,100787.34
2023-07-14T17:19:42.113Z,100786.63
2023-07-14T17:22:12.346Z,100783.28
2023-07-14T17:24:41.624Z,100771.16
2023-07-14T17:27:15.928Z,100771.00
2023-07-14T17:29:44.510Z,100763.13
2023-07-14T17:32:11.918Z,100764.53
2023-07-14T17:34:38.643Z,100767.22
2023-07-14T17:37:07.640Z,100766.59
2023-07-14T17:39:47.006Z,100765.31
2023-07-14T17:42:20.593Z,100770.44
2023-07-14T17:44:47.821Z,100769.63
2023-07-14T17:47:14.656Z,100770.28
2023-07-14T17:49:42.048Z,100781.91
2023-07-14T17:52:18.700Z,100771.88
2023-07-14T17:54:45.732Z,100767.56
2023-07-14T17:57:18.316Z,100766.47
2023-07-14T17:59:50.898Z,100762.13
2023-07-14T18:02:37.644Z,100760.22
2023-07-14T18:05:05.213Z,100755.91
2023-07-14T18:07:33.442Z,100759.53
2023-07-14T18:10:00.331Z,100753.13
2023-07-14T18:12:29.295Z,100744.94
2023-07-14T18:14:55.995Z,100744.94
2023-07-14T18:17:23.251Z,100742.47
2023-07-14T18:19:50.062Z,100741.69
2023-07-14T18:22:27.946Z,100738.75
2023-07-14T18:25:01.103Z,100731.06
2023-07-14T18:27:30.701Z,100733.53
2023-07-14T18:29:57.428Z,100728.88
2023-07-14T18:32:24.308Z,100734.44
2023-07-14T18:34:51.069Z,100735.28
2023-07-14T18:37:17.811Z,100731.28
2023-07-14T18:39:47.764Z,100736.81
2023-07-14T18:42:19.650Z,100733.22
2023-07-14T18:44:46.435Z,100731.94
2023-07-14T18:47:14.634Z,100738.44
2023-07-14T18:49:42.318Z,100737.47
2023-07-14T18:52:16.011Z,100740.25
2023-07-14T18:54:42.989Z,100739.50
2023-07-14T18:57:20.598Z,100739.13
2023-07-14T18:59:49.147Z,100734.03
2023-07-14T19:02:27.910Z,100741.38
2023-07-14T19:04:56.239Z,100735.97
2023-07-14T19:07:23.866Z,100728.63
2023-07-14T19:09:50.581Z,100731.31
2023-07-14T19:12:26.272Z,100736.56
2023-07-14T19:14:52.923Z,100731.09
2023-07-14T19:17:20.644Z,100731.56
2023-07-14T19:19:47.582Z,100730.59
2023-07-14T19:22:16.784Z,100734.16
2023-07-14T19:24:43.455Z,100736.22
2023-07-14T19:27:14.886Z,100731.09
2023-07-14T19:29:41.641Z,100729.13
2023-07-14T19:32:16.716Z,100727.75
2023-07-14T19:34:49.026Z,100731.00
2023-07-14T19:37:16.086Z,100721.78
2023-07-14T19:39:42.724Z,100732.69
2023-07-14T19:42:17.974Z,100726.06
2023-07-14T19:44:47.995Z,100720.22
2023-07-14T19:47:20.236Z,100719.63
2023-07-14T19:49:47.447Z,100715.97
2023-07-14T19:52:15.164Z,100707.69
2023-07-14T19:54:42.227Z,100705.38
2023-07-14T19:57:16.724Z,100708.81
2023-07-14T19:59:43.437Z,100710.47
2023-07-14T20:02:27.063Z,100705.81
2023-07-14T20:04:55.665Z,100709.34
2023-07-14T20:07:22.824Z,100703.22
2023-07-14T20:09:49.442Z,100704.50
2023-07-14T20:12:18.512Z,100702.19
2023-07-14T20:14:45.326Z,100702.28
2023-07-14T20:17:13.393Z,100702.28
2023-07-14T20:19:40.156Z,100701.44
2023-07-14T20:22:19.349Z,100703.03
2023-07-14T20:24:46.119Z,100694.84
2023-07-14T20:27:19.620Z,100704.91
2023-07-14T20:29:46.970Z,100695.88
2023-07-14T20:32:15.099Z,100692.50
2023-07-14T20:34:43.341Z,100690.00
2023-07-14T20:37:17.573Z,100686.72
2023-07-14T20:39:44.559Z,100690.63
2023-07-14T20:42:16.404Z,100691.59
2023-07-14T20:44:46.494Z,100682.16
2023-07-14T20:47:17.183Z,100683.19
2023-07-14T20:49:45.482Z,100689.91
2023-07-14T20:52:23.144Z,100686.34
2023-07-14T20:54:53.670Z,100690.09
2023-07-14T20:57:20.859Z,100684.13
2023-07-14T20:59:48.496Z,100685.63
2023-07-14T21:02:25.154Z,100691.56
2023-07-14T21:04:52.567Z,100687.13
2023-07-14T21:07:20.478Z,100682.66
2023-07-14T21:09:47.347Z,100688.41
2023-07-14T21:12:26.954Z,100679.97
2023-07-14T21:14:54.360Z,100678.00
2023-07-14T21:17:24.751Z,100674.00
2023-07-14T21:19:52.016Z,100675.00
2023-07-14T21:22:21.475Z,100666.81
2023-07-14T21:24:48.247Z,100668.19
2023-07-14T21:27:18.084Z,100662.44
2023-07-14T21:29:45.089Z,100660.19
2023-07-14T21:32:27.992Z,100657.97
2023-07-14T21:34:56.661Z,100663.53
2023-07-14T21:37:24.373Z,100655.44
2023-07-14T21:39:51.774Z,100659.75
2023-07-14T21:42:19.196Z,100656.28
2023-07-14T21:44:47.525Z,100654.44
2023-07-14T21:47:15.551Z,100654.44
2023-07-14T21:49:42.227Z,100647.81
2023-07-14T21:52:14.007Z,100653.59
2023-07-14T21:54:40.999Z,100647.72
2023-07-14T21:57:17.431Z,100654.22
2023-07-14T21:59:44.662Z,100649.72
2023-07-14T22:02:16.797Z,100650.78
2023-07-14T22:04:43.679Z,100640.31
2023-07-14T22:07:12.446Z,100648.44
2023-07-14T22:09:39.197Z,100647.59
2023-07-14T22:12:16.872Z,100640.41
2023-07-14T22:14:43.863Z,100645.47
2023-07-14T22:17:14.019Z,100649.56
2023-07-14T22:19:41.666Z,100643.13
2023-07-14T22:22:10.144Z,100655.22
2023-07-14T22:24:37.022Z,100649.63
2023-07-14T22:27:03.947Z,100655.31
2023-07-14T22:29:30.680Z,100658.97
2023-07-14T22:31:58.357Z,100661.38
2023-07-14T22:34:25.056Z,100671.16
2023-07-14T22:36:51.801Z,100670.31
2023-07-14T22:39:20.308Z,100671.91
2023-07-14T22:41:49.708Z,100663.97
2023-07-14T22:44:18.499Z,100668.28
2023-07-14T22:46:46.877Z,100663.34
2023-07-14T22:49:14.391Z,100653.63
2023-07-14T22:51:45.510Z,100644.50
2023-07-14T22:54:17.315Z,100635.41
2023-07-14T22:56:44.181Z,100642.84
2023-07-14T22:59:10.940Z,100620.69
2023-07-14T23:01:37.699Z,100623.38
2023-07-14T23:04:06.540Z,100622.53
2023-07-14T23:06:34.008Z,100629.16
2023-07-14T23:09:00.858Z,100622.53
2023-07-14T23:11:32.499Z,100615.38
2023-07-14T23:14:00.110Z,100608.13
2023-07-14T23:16:27.033Z,100605.41
2023-07-14T23:18:53.990Z,100597.00
2023-07-14T23:21:30.413Z,100592.38
2023-07-14T23:23:59.813Z,100588.09
2023-07-14T23:26:29.710Z,100592.94
2023-07-14T23:28:56.914Z,100586.72
2023-07-14T23:31:33.359Z,100585.22
2023-07-14T23:34:00.488Z,100580.66
2023-07-14T23:36:27.711Z,100578.50
2023-07-14T23:38:54.621Z,100573.28
2023-07-14T23:41:25.540Z,100576.81
2023-07-14T23:43:54.160Z,100567.31
2023-07-14T23:46:25.498Z,100577.00
2023-07-14T23:48:53.486Z,100567.06
2023-07-14T23:51:34.456Z,100570.78
2023-07-14T23:54:01.707Z,100563.22
2023-07-14T23:56:29.468Z,100551.50
2023-07-14T23:58:56.568Z,100550.22
